Terminal Aerodrome Forecast
Issued by NWS Duluth, MN

Home | Current Version | Previous Version | Text Only | Print | Product List | Glossary On
Versions: 1 2 3 4 5 6 7 8 9 10 11 12 13 14 15 16 17 18 19 20
000
FTUS43 KDLH 250500
TAFDLH
TAF
KDLH 250530Z 2506/2606 32013KT 6SM -SN OVC018
      TEMPO 2506/2510 3SM -SN
     FM251400 32009KT P6SM FEW015 SCT040
     FM251700 22005KT P6SM BKN040
     FM260200 16005KT P6SM BKN060=

USA.gov is the U.S. government's official web portal to all federal, state and local government web resources and services.